Aguadilla, PR (00603)

8:33 PM AST on October 22, 2014 (GMT -0400)
Oficina Manejo de Emergencias de Aguada PR | Change Station
CLOSE
Current Station
Personal Weather Station
Location: Aguada, PR
Elevation: 80 ft
Nearby Weather Stations

Elev 80 ft 18.38 °N, 67.19 °W | Updated 1 minute ago

Light Rain
Light Rain
79.6 °F
Feels Like 85 °F
N
0.0
Wind Variable Wind from NW
Gusts 0.0 mph

Today
High -- | Low -- °F
--% Chance of Precip.
Yesterday
High -- | Low -- °F
Precip. -- in
6:24 AM 6:01 PM
Waning Crescent, 1% visible
Pressure 29.92 in
Visibility 10.0 miles
Clouds Scattered Clouds 2000 ft
Scattered Clouds 3700 ft
Heat Index 85 °F
Dew Point 77 °F
Humidity 92%
Rainfall 0.25 in
Snow Depth Not available.
UV 0 out of 12
Pollen Not available.
Air Quality Not available.
Flu Activity Local Activity
METAR TJBQ 222250Z 07004KT 10SM -RA SCT020 SCT037 SCT46 26/24 A2992 RMK RWY 8 ATIS W

More Conditions Fewer Conditions

Pressure 29.92 in
Visibility 10.0 miles
Clouds Scattered Clouds 2000 ft
Scattered Clouds 3700 ft
Heat Index 85 °F
Dew Point 77 °F
Humidity 92%
Rainfall 0.25 in
Snow Depth Not available.
UV 0 out of 12
Pollen Not available.
Air Quality Not available.
Flu Activity Local Activity
METAR TJBQ 222250Z 07004KT 10SM -RA SCT020 SCT037 SCT46 26/24 A2992 RMK RWY 8 ATIS W

More Conditions Fewer Conditions

10-Day Weather Forecast

Almanac

Astronomy

Oct. 22, 2014 Rise Set
Actual Time 6:24 AM AST 6:01 PM AST
Civil Twilight 6:02 AM AST 6:23 PM AST
Nautical Twilight 5:36 AM AST 6:49 PM AST
Astronomical Twilight 5:11 AM AST 7:14 PM AST
Moon 5:13 AM AST (10/22) 5:18 PM AST (10/22)
Length of Visible Light 12h 21m
Length of Day
11h 36m
Tomorrow will be 0m 57s shorter.
Waning Crescent, 1% of the Moon is Illuminated
Today
Waning Crescent
Oct 23
New
Oct 30
First Quarter
Nov 6
Full
Nov 14
Last Quarter

Community

WunderPhotos

Upload Photos

1,764,095 photos uploaded!

WunderBlogs® & News

Nearby

Snow Depth

Station Depth Elevation
No new snow has been reported.

Earthquake Activity

City Distance Mag. Time & Date
No recent earthquake activity has been reported nearby.
Minimum magnitude displayed is 2.5.

Coastal Water Temperatures

Place Temperature
Mayaguez, PR 86.0 °F
Magueyes Islands, PR 86.0 °F
Mona Island, PR 81.0 °F

Nearby Weather Stations